sensor_id;sensor_type;location;lat;lon;timestamp;temperature;humidity
63960;DHT22;50136;51.374;0.096;2024-02-16T00:08:30;12.50;99.90
63960;DHT22;50136;51.374;0.096;2024-02-16T00:18:33;12.40;99.90
63960;DHT22;50136;51.374;0.096;2024-02-16T00:28:36;12.40;99.90
63960;DHT22;50136;51.374;0.096;2024-02-16T00:38:39;12.60;99.90
63960;DHT22;50136;51.374;0.096;2024-02-16T00:48:41;12.70;99.90
63960;DHT22;50136;51.374;0.096;2024-02-16T00:58:44;12.80;99.90
63960;DHT22;50136;51.374;0.096;2024-02-16T01:08:46;12.80;99.90
63960;DHT22;50136;51.374;0.096;2024-02-16T01:18:50;12.90;99.90
63960;DHT22;50136;51.374;0.096;2024-02-16T01:28:52;12.90;99.90
63960;DHT22;50136;51.374;0.096;2024-02-16T01:38:56;13.00;99.90
63960;DHT22;50136;51.374;0.096;2024-02-16T01:48:58;13.10;99.90
63960;DHT22;50136;51.374;0.096;2024-02-16T01:59:01;13.10;99.90
63960;DHT22;50136;51.374;0.096;2024-02-16T02:09:03;13.20;99.90
63960;DHT22;50136;51.374;0.096;2024-02-16T02:19:07;13.30;99.90
63960;DHT22;50136;51.374;0.096;2024-02-16T02:29:10;13.20;99.90
63960;DHT22;50136;51.374;0.096;2024-02-16T02:39:12;13.00;99.90
63960;DHT22;50136;51.374;0.096;2024-02-16T02:49:16;12.90;99.90
63960;DHT22;50136;51.374;0.096;2024-02-16T02:59:18;12.90;99.90
63960;DHT22;50136;51.374;0.096;2024-02-16T03:09:21;12.90;99.90
63960;DHT22;50136;51.374;0.096;2024-02-16T03:19:23;12.80;99.90
63960;DHT22;50136;51.374;0.096;2024-02-16T03:29:27;12.70;99.90
63960;DHT22;50136;51.374;0.096;2024-02-16T03:39:29;12.70;99.90
63960;DHT22;50136;51.374;0.096;2024-02-16T03:49:32;12.60;99.90
63960;DHT22;50136;51.374;0.096;2024-02-16T03:59:35;12.60;99.90
63960;DHT22;50136;51.374;0.096;2024-02-16T04:09:38;12.60;99.90
63960;DHT22;50136;51.374;0.096;2024-02-16T04:19:40;12.50;99.90
63960;DHT22;50136;51.374;0.096;2024-02-16T04:29:44;12.50;99.90
63960;DHT22;50136;51.374;0.096;2024-02-16T04:39:46;12.30;99.90
63960;DHT22;50136;51.374;0.096;2024-02-16T04:49:49;12.20;99.90
63960;DHT22;50136;51.374;0.096;2024-02-16T04:59:51;12.20;99.90
63960;DHT22;50136;51.374;0.096;2024-02-16T05:09:54;12.10;99.90
63960;DHT22;50136;51.374;0.096;2024-02-16T05:19:56;12.00;99.90
63960;DHT22;50136;51.374;0.096;2024-02-16T05:30:00;12.00;99.90
63960;DHT22;50136;51.374;0.096;2024-02-16T05:40:02;12.00;99.90
63960;DHT22;50136;51.374;0.096;2024-02-16T05:50:06;12.10;99.90
63960;DHT22;50136;51.374;0.096;2024-02-16T06:00:09;12.00;99.90
63960;DHT22;50136;51.374;0.096;2024-02-16T06:10:13;12.00;99.90
63960;DHT22;50136;51.374;0.096;2024-02-16T06:20:15;11.80;99.90
63960;DHT22;50136;51.374;0.096;2024-02-16T06:30:22;11.70;99.90
63960;DHT22;50136;51.374;0.096;2024-02-16T06:40:24;11.60;99.90
63960;DHT22;50136;51.374;0.096;2024-02-16T06:50:28;11.50;99.90
63960;DHT22;50136;51.374;0.096;2024-02-16T07:00:30;11.30;99.90
63960;DHT22;50136;51.374;0.096;2024-02-16T07:10:33;11.20;99.90
63960;DHT22;50136;51.374;0.096;2024-02-16T07:20:36;11.10;99.90
63960;DHT22;50136;51.374;0.096;2024-02-16T07:30:39;11.00;99.90
63960;DHT22;50136;51.374;0.096;2024-02-16T07:40:44;10.90;99.90
63960;DHT22;50136;51.374;0.096;2024-02-16T07:50:48;10.80;99.90
63960;DHT22;50136;51.374;0.096;2024-02-16T08:00:50;10.70;99.90
63960;DHT22;50136;51.374;0.096;2024-02-16T08:10:54;10.80;99.90
63960;DHT22;50136;51.374;0.096;2024-02-16T08:20:56;10.70;99.90
63960;DHT22;50136;51.374;0.096;2024-02-16T08:31:00;10.80;99.90
63960;DHT22;50136;51.374;0.096;2024-02-16T08:41:05;10.90;99.90
63960;DHT22;50136;51.374;0.096;2024-02-16T08:51:09;11.00;99.90
63960;DHT22;50136;51.374;0.096;2024-02-16T09:01:11;10.90;99.90
63960;DHT22;50136;51.374;0.096;2024-02-16T09:11:14;11.00;99.90
63960;DHT22;50136;51.374;0.096;2024-02-16T09:21:16;11.20;99.90
63960;DHT22;50136;51.374;0.096;2024-02-16T09:31:20;11.90;99.90
63960;DHT22;50136;51.374;0.096;2024-02-16T09:41:22;12.40;99.90
63960;DHT22;50136;51.374;0.096;2024-02-16T09:51:28;12.10;99.90
63960;DHT22;50136;51.374;0.096;2024-02-16T10:01:30;11.90;99.90
63960;DHT22;50136;51.374;0.096;2024-02-16T10:11:35;12.10;99.90
63960;DHT22;50136;51.374;0.096;2024-02-16T10:21:37;12.30;99.90
63960;DHT22;50136;51.374;0.096;2024-02-16T10:31:40;12.50;99.90
63960;DHT22;50136;51.374;0.096;2024-02-16T10:41:44;14.20;99.90
63960;DHT22;50136;51.374;0.096;2024-02-16T10:51:51;13.40;99.90
63960;DHT22;50136;51.374;0.096;2024-02-16T11:02:00;15.10;99.90
63960;DHT22;50136;51.374;0.096;2024-02-16T11:12:05;16.00;99.90
63960;DHT22;50136;51.374;0.096;2024-02-16T11:22:07;14.40;99.90
63960;DHT22;50136;51.374;0.096;2024-02-16T11:32:11;13.70;99.90
63960;DHT22;50136;51.374;0.096;2024-02-16T11:42:13;13.10;99.90
63960;DHT22;50136;51.374;0.096;2024-02-16T11:52:22;13.00;99.90
63960;DHT22;50136;51.374;0.096;2024-02-16T12:02:24;13.10;99.90
63960;DHT22;50136;51.374;0.096;2024-02-16T12:12:28;13.10;99.90
63960;DHT22;50136;51.374;0.096;2024-02-16T12:22:30;13.30;99.90
63960;DHT22;50136;51.374;0.096;2024-02-16T12:32:34;13.50;99.90
63960;DHT22;50136;51.374;0.096;2024-02-16T12:42:36;13.60;99.90
63960;DHT22;50136;51.374;0.096;2024-02-16T12:52:39;13.60;99.90
63960;DHT22;50136;51.374;0.096;2024-02-16T13:02:55;13.90;99.90
63960;DHT22;50136;51.374;0.096;2024-02-16T13:12:59;13.90;99.90
63960;DHT22;50136;51.374;0.096;2024-02-16T13:23:01;13.70;99.90
63960;DHT22;50136;51.374;0.096;2024-02-16T13:33:05;14.20;99.90
63960;DHT22;50136;51.374;0.096;2024-02-16T13:43:08;14.10;99.90
63960;DHT22;50136;51.374;0.096;2024-02-16T13:53:11;14.10;99.90
63960;DHT22;50136;51.374;0.096;2024-02-16T14:03:17;13.80;99.90
63960;DHT22;50136;51.374;0.096;2024-02-16T14:13:21;13.70;99.90
63960;DHT22;50136;51.374;0.096;2024-02-16T14:23:23;13.60;99.90
63960;DHT22;50136;51.374;0.096;2024-02-16T14:33:26;13.50;99.90
63960;DHT22;50136;51.374;0.096;2024-02-16T14:43:35;13.60;99.90
63960;DHT22;50136;51.374;0.096;2024-02-16T14:53:38;13.60;99.90
63960;DHT22;50136;51.374;0.096;2024-02-16T15:03:40;13.40;99.90
63960;DHT22;50136;51.374;0.096;2024-02-16T15:13:44;13.20;99.90
63960;DHT22;50136;51.374;0.096;2024-02-16T15:23:49;13.10;99.90
63960;DHT22;50136;51.374;0.096;2024-02-16T15:33:54;13.00;99.90
63960;DHT22;50136;51.374;0.096;2024-02-16T15:43:57;12.90;99.90
63960;DHT22;50136;51.374;0.096;2024-02-16T15:54:03;12.70;99.90
63960;DHT22;50136;51.374;0.096;2024-02-16T16:04:08;12.60;99.90
63960;DHT22;50136;51.374;0.096;2024-02-16T16:14:11;12.50;99.90
63960;DHT22;50136;51.374;0.096;2024-02-16T16:24:13;12.50;99.90
63960;DHT22;50136;51.374;0.096;2024-02-16T16:34:17;12.40;99.90
63960;DHT22;50136;51.374;0.096;2024-02-16T16:44:19;12.20;99.90
63960;DHT22;50136;51.374;0.096;2024-02-16T16:54:32;12.10;99.90
63960;DHT22;50136;51.374;0.096;2024-02-16T17:04:37;12.00;99.90
63960;DHT22;50136;51.374;0.096;2024-02-16T17:14:43;11.80;99.90
63960;DHT22;50136;51.374;0.096;2024-02-16T17:24:45;11.60;99.90
63960;DHT22;50136;51.374;0.096;2024-02-16T17:34:48;11.50;99.90
63960;DHT22;50136;51.374;0.096;2024-02-16T17:44:51;11.50;99.90
63960;DHT22;50136;51.374;0.096;2024-02-16T17:54:54;11.50;99.90
63960;DHT22;50136;51.374;0.096;2024-02-16T18:04:56;11.40;99.90
63960;DHT22;50136;51.374;0.096;2024-02-16T18:15:00;11.40;99.90
63960;DHT22;50136;51.374;0.096;2024-02-16T18:25:02;11.30;99.90
63960;DHT22;50136;51.374;0.096;2024-02-16T18:35:06;11.40;99.90
63960;DHT22;50136;51.374;0.096;2024-02-16T18:45:09;11.40;99.90
63960;DHT22;50136;51.374;0.096;2024-02-16T18:55:13;11.40;99.90
63960;DHT22;50136;51.374;0.096;2024-02-16T19:05:15;11.40;99.90
63960;DHT22;50136;51.374;0.096;2024-02-16T19:15:18;11.40;99.90
63960;DHT22;50136;51.374;0.096;2024-02-16T19:25:20;11.50;99.90
63960;DHT22;50136;51.374;0.096;2024-02-16T19:35:24;11.40;99.90
63960;DHT22;50136;51.374;0.096;2024-02-16T19:45:26;11.30;99.90
63960;DHT22;50136;51.374;0.096;2024-02-16T19:55:31;11.20;99.90
63960;DHT22;50136;51.374;0.096;2024-02-16T20:05:33;11.30;99.90
63960;DHT22;50136;51.374;0.096;2024-02-16T20:15:37;11.20;99.90
63960;DHT22;50136;51.374;0.096;2024-02-16T20:25:39;11.10;99.90
63960;DHT22;50136;51.374;0.096;2024-02-16T20:35:42;11.20;99.90
63960;DHT22;50136;51.374;0.096;2024-02-16T20:45:44;11.20;99.90
63960;DHT22;50136;51.374;0.096;2024-02-16T20:55:48;11.20;99.90
63960;DHT22;50136;51.374;0.096;2024-02-16T21:05:53;11.20;99.90
63960;DHT22;50136;51.374;0.096;2024-02-16T21:15:57;11.20;99.90
63960;DHT22;50136;51.374;0.096;2024-02-16T21:25:59;11.20;99.90
63960;DHT22;50136;51.374;0.096;2024-02-16T21:36:03;11.20;99.90
63960;DHT22;50136;51.374;0.096;2024-02-16T21:46:05;11.10;99.90
63960;DHT22;50136;51.374;0.096;2024-02-16T21:56:08;11.10;99.90
63960;DHT22;50136;51.374;0.096;2024-02-16T22:06:10;11.10;99.90
63960;DHT22;50136;51.374;0.096;2024-02-16T22:16:14;11.10;99.90
63960;DHT22;50136;51.374;0.096;2024-02-16T22:26:16;11.20;99.90
63960;DHT22;50136;51.374;0.096;2024-02-16T22:36:20;11.10;99.90
63960;DHT22;50136;51.374;0.096;2024-02-16T22:46:22;11.00;99.90
63960;DHT22;50136;51.374;0.096;2024-02-16T22:56:26;11.10;99.90
63960;DHT22;50136;51.374;0.096;2024-02-16T23:06:28;11.20;99.90
63960;DHT22;50136;51.374;0.096;2024-02-16T23:16:32;11.20;99.90
63960;DHT22;50136;51.374;0.096;2024-02-16T23:26:34;11.20;99.90
63960;DHT22;50136;51.374;0.096;2024-02-16T23:36:37;11.10;99.90
63960;DHT22;50136;51.374;0.096;2024-02-16T23:46:39;11.10;99.90
63960;DHT22;50136;51.374;0.096;2024-02-16T23:56:43;11.10;99.90
